Time;durP1;ratioP1;P1;durP2;ratioP2;P2;SDS_P1;SDS_P2;PMS_P1;PMS_P2;Temp;Humidity;BMP_temperature;BMP_pressure;BME280_temperature;BME280_humidity;BME280_pressure;Samples;Min_cycle;Max_cycle;Signal;HPM_P1;HPM_P2
2022/09/07 00:00:31;;;;;;;4.75;2.90;;;22.10;75.80;;;;;;5039488;28;20036;-79
2022/09/07 00:02:56;;;;;;;4.32;2.78;;;22.10;75.70;;;;;;5021266;28;20431;-79
2022/09/07 00:05:22;;;;;;;4.55;2.88;;;22.10;75.70;;;;;;5054998;28;20130;-79
2022/09/07 00:07:48;;;;;;;4.90;3.20;;;22.10;75.80;;;;;;5053657;28;20039;-78
2022/09/07 00:10:13;;;;;;;4.47;3.00;;;22.00;75.80;;;;;;5023574;28;20044;-77
2022/09/07 00:12:39;;;;;;;4.82;3.17;;;21.90;75.70;;;;;;5015856;28;20025;-78
2022/09/07 00:15:10;;;;;;;5.00;3.20;;;22.00;75.80;;;;;;5016109;28;20033;-79
2022/09/07 00:17:35;;;;;;;5.38;3.30;;;22.00;75.90;;;;;;5041268;28;20017;-80
2022/09/07 00:20:02;;;;;;;5.30;3.40;;;22.00;75.90;;;;;;5017566;28;20091;-78
2022/09/07 00:22:28;;;;;;;4.97;3.20;;;22.00;75.90;;;;;;5026651;28;20029;-79
2022/09/07 00:24:53;;;;;;;4.97;3.00;;;22.00;75.90;;;;;;5030928;28;20091;-78
2022/09/07 00:27:19;;;;;;;4.45;2.88;;;22.00;76.00;;;;;;5033019;28;20079;-79
2022/09/07 00:29:44;;;;;;;5.45;3.30;;;22.00;76.00;;;;;;5013590;28;20556;-78
2022/09/07 00:32:10;;;;;;;4.60;2.88;;;22.00;76.00;;;;;;5032935;28;20030;-78
2022/09/07 00:34:36;;;;;;;4.45;2.88;;;22.00;76.10;;;;;;5022622;28;20029;-79
2022/09/07 00:37:01;;;;;;;4.95;3.10;;;22.00;76.10;;;;;;5033063;28;20020;-78
2022/09/07 00:39:27;;;;;;;4.28;2.78;;;21.90;76.00;;;;;;5039735;28;20025;-79
2022/09/07 00:41:52;;;;;;;4.32;3.00;;;22.00;76.00;;;;;;5030223;28;20037;-78
2022/09/07 00:44:43;;;;;;;4.45;2.90;;;22.00;76.00;;;;;;5024258;28;20067;-79
2022/09/07 00:47:17;;;;;;;5.15;3.20;;;22.00;75.90;;;;;;5027896;28;20061;-79
2022/09/07 00:49:46;;;;;;;4.53;3.00;;;22.10;75.90;;;;;;5038349;28;20265;-78
2022/09/07 00:52:12;;;;;;;5.20;3.05;;;22.00;75.90;;;;;;5030905;28;20464;-79
2022/09/07 00:54:43;;;;;;;4.70;3.20;;;22.00;75.90;;;;;;5031598;28;20021;-79
2022/09/07 00:57:09;;;;;;;4.57;3.20;;;22.00;75.90;;;;;;5014150;28;20025;-78
2022/09/07 00:59:42;;;;;;;4.85;3.38;;;22.00;75.90;;;;;;5018221;28;20132;-78
2022/09/07 01:02:08;;;;;;;4.65;3.13;;;22.00;76.00;;;;;;5039062;28;20029;-79
2022/09/07 01:04:34;;;;;;;4.55;3.00;;;22.00;76.10;;;;;;5018785;28;20025;-79
2022/09/07 01:07:02;;;;;;;5.50;3.45;;;21.90;76.00;;;;;;5012303;28;20033;-78
2022/09/07 01:09:28;;;;;;;4.43;3.17;;;22.00;76.10;;;;;;5012616;28;20097;-78
2022/09/07 01:11:58;;;;;;;4.32;2.90;;;22.00;76.10;;;;;;5020024;28;20022;-78
2022/09/07 01:14:35;;;;;;;4.30;2.85;;;21.90;76.10;;;;;;4992233;28;20084;-79
2022/09/07 01:17:28;;;;;;;4.43;3.00;;;22.00;76.10;;;;;;5033624;28;20075;-77
2022/09/07 01:20:14;;;;;;;4.40;2.83;;;22.00;76.10;;;;;;5045151;28;20741;-79
2022/09/07 01:23:06;;;;;;;4.85;3.20;;;22.00;76.20;;;;;;5021197;28;20144;-77
2022/09/07 01:26:09;;;;;;;4.18;2.90;;;22.00;76.20;;;;;;5012978;28;20032;-79
2022/09/07 01:28:35;;;;;;;3.95;2.83;;;22.00;76.20;;;;;;4996708;28;20041;-78
2022/09/07 01:31:18;;;;;;;5.13;3.05;;;22.00;76.00;;;;;;5033921;28;20512;-77
2022/09/07 01:33:51;;;;;;;3.95;2.80;;;22.10;76.10;;;;;;5041541;28;20513;-81
2022/09/07 01:36:34;;;;;;;4.15;2.78;;;22.00;76.00;;;;;;5024698;28;20037;-78
2022/09/07 01:39:01;;;;;;;4.70;3.08;;;22.00;76.00;;;;;;5013962;28;20540;-79
2022/09/07 01:41:49;;;;;;;4.32;2.95;;;22.00;76.00;;;;;;5011822;28;20095;-79
2022/09/07 01:44:23;;;;;;;5.07;3.10;;;22.00;76.00;;;;;;5021897;28;20033;-79
2022/09/07 01:47:06;;;;;;;4.10;2.85;;;22.00;76.10;;;;;;5014364;28;20060;-79
2022/09/07 01:49:47;;;;;;;5.18;3.40;;;22.00;76.20;;;;;;5012411;28;20029;-80
2022/09/07 01:52:24;;;;;;;4.63;2.88;;;21.90;76.30;;;;;;5039821;28;20044;-80
2022/09/07 01:55:01;;;;;;;4.18;2.90;;;21.90;76.40;;;;;;5051624;28;20555;-81
2022/09/07 01:57:43;;;;;;;5.13;3.28;;;21.90;76.40;;;;;;5033643;28;20079;-78
2022/09/07 02:00:12;;;;;;;4.70;3.20;;;21.90;76.40;;;;;;5025965;28;20040;-78
2022/09/07 02:02:44;;;;;;;4.53;3.30;;;21.90;76.40;;;;;;5008258;28;20843;-81
2022/09/07 02:05:16;;;;;;;4.53;3.10;;;21.90;76.40;;;;;;5012033;28;20021;-79
2022/09/07 02:07:44;;;;;;;4.50;3.15;;;21.90;76.40;;;;;;5030519;28;20033;-78
2022/09/07 02:10:14;;;;;;;4.78;3.00;;;22.00;76.50;;;;;;5029876;28;20030;-78
2022/09/07 02:12:54;;;;;;;5.35;3.00;;;22.00;76.40;;;;;;5050992;28;20508;-78
2022/09/07 02:15:27;;;;;;;4.68;2.92;;;22.00;76.30;;;;;;5052913;28;20064;-78
2022/09/07 02:18:00;;;;;;;4.97;3.08;;;22.00;76.20;;;;;;5028864;28;20026;-78
2022/09/07 02:20:30;;;;;;;4.53;2.88;;;22.00;76.20;;;;;;4996273;28;20026;-78
2022/09/07 02:23:01;;;;;;;4.78;3.10;;;22.00;76.30;;;;;;5000797;28;20033;-79
2022/09/07 02:25:31;;;;;;;4.50;2.92;;;22.00;76.20;;;;;;4997271;28;20037;-79
2022/09/07 02:28:05;;;;;;;4.47;3.13;;;21.90;76.30;;;;;;4997321;28;20034;-80
2022/09/07 02:30:31;;;;;;;4.97;3.20;;;22.00;76.30;;;;;;5001008;28;20342;-78
2022/09/07 02:32:56;;;;;;;5.63;3.30;;;22.00;76.30;;;;;;5042666;28;20029;-79
2022/09/07 02:35:22;;;;;;;4.13;2.88;;;21.90;76.40;;;;;;5036612;28;20025;-78
2022/09/07 02:37:49;;;;;;;5.22;2.90;;;21.90;76.40;;;;;;5036443;28;20025;-78
2022/09/07 02:40:14;;;;;;;5.28;3.30;;;21.90;76.50;;;;;;5051588;28;20029;-78
2022/09/07 02:42:41;;;;;;;4.78;2.80;;;22.00;76.50;;;;;;5047901;28;20395;-78
2022/09/07 02:45:09;;;;;;;4.53;3.20;;;21.90;76.50;;;;;;5045170;28;20064;-77
2022/09/07 02:48:31;;;;;;;4.10;2.75;;;21.90;76.50;;;;;;5033497;28;20025;-78
2022/09/07 02:51:19;;;;;;;4.45;2.92;;;21.90;76.50;;;;;;4930227;28;20086;-78
2022/09/07 02:54:13;;;;;;;3.90;2.75;;;21.90;77.10;;;;;;5034406;28;20049;-78
2022/09/07 02:56:55;;;;;;;5.18;2.90;;;21.90;76.60;;;;;;5014641;28;20061;-78
2022/09/07 02:59:37;;;;;;;4.43;2.90;;;22.00;76.50;;;;;;4996652;28;20026;-77
2022/09/07 03:02:27;;;;;;;4.53;3.17;;;22.00;76.50;;;;;;5013321;28;20030;-78
2022/09/07 03:05:04;;;;;;;4.35;2.78;;;22.00;76.40;;;;;;5036310;28;20031;-78
2022/09/07 03:07:42;;;;;;;4.68;3.10;;;22.00;76.40;;;;;;5052618;28;20025;-78
2022/09/07 03:10:09;;;;;;;4.38;3.00;;;22.00;76.40;;;;;;5031771;28;20408;-78
2022/09/07 03:12:46;;;;;;;5.38;3.35;;;22.00;76.50;;;;;;5017115;28;20519;-78
2022/09/07 03:15:14;;;;;;;4.75;3.08;;;21.90;76.40;;;;;;5032805;28;20533;-79
2022/09/07 03:17:40;;;;;;;4.10;2.72;;;21.90;76.40;;;;;;5030785;28;20412;-78
2022/09/07 03:20:07;;;;;;;4.18;2.97;;;21.90;76.40;;;;;;5018664;28;20025;-78
2022/09/07 03:22:33;;;;;;;4.75;3.17;;;21.90;76.50;;;;;;5014500;28;20361;-78
2022/09/07 03:24:59;;;;;;;4.95;2.95;;;21.90;76.60;;;;;;5034871;28;20100;-79
2022/09/07 03:27:24;;;;;;;4.90;3.00;;;21.90;76.70;;;;;;5011402;28;20036;-79
2022/09/07 03:29:50;;;;;;;4.47;3.25;;;21.90;76.60;;;;;;5045684;28;20026;-77
2022/09/07 03:32:16;;;;;;;5.25;3.30;;;21.90;76.60;;;;;;5015372;28;20576;-77
2022/09/07 03:34:41;;;;;;;4.78;3.05;;;21.80;76.60;;;;;;5031053;28;20021;-79
2022/09/07 03:37:07;;;;;;;4.40;2.92;;;21.90;76.70;;;;;;5033711;28;20872;-77
2022/09/07 03:39:33;;;;;;;5.30;2.92;;;21.90;76.80;;;;;;5020007;28;20033;-79
2022/09/07 03:41:59;;;;;;;4.30;2.90;;;21.90;76.80;;;;;;5011403;28;20034;-80
2022/09/07 03:44:25;;;;;;;4.13;2.90;;;21.90;76.70;;;;;;5031532;28;20040;-79
2022/09/07 03:46:50;;;;;;;4.35;2.78;;;21.90;76.60;;;;;;5027567;28;20542;-77
2022/09/07 03:49:16;;;;;;;3.78;2.78;;;22.00;76.60;;;;;;5018922;28;20515;-79
2022/09/07 03:51:42;;;;;;;4.30;3.15;;;22.00;76.60;;;;;;5017798;28;20029;-78
2022/09/07 03:54:08;;;;;;;4.72;2.90;;;22.00;76.60;;;;;;5016756;28;20029;-78
2022/09/07 03:56:34;;;;;;;4.38;2.90;;;21.90;76.50;;;;;;5019369;28;20025;-77
2022/09/07 03:59:00;;;;;;;4.80;3.00;;;21.90;76.60;;;;;;5027632;28;20037;-78
2022/09/07 04:01:26;;;;;;;4.32;2.70;;;21.90;76.60;;;;;;5026438;28;20090;-78
2022/09/07 04:03:55;;;;;;;4.97;3.03;;;21.90;76.60;;;;;;5018763;28;20116;-78
2022/09/07 04:06:21;;;;;;;4.63;3.03;;;21.80;76.50;;;;;;5019213;28;20503;-78
2022/09/07 04:08:47;;;;;;;4.03;2.85;;;21.90;76.70;;;;;;5015102;28;20033;-79
2022/09/07 04:11:16;;;;;;;4.22;2.85;;;21.90;76.70;;;;;;5033597;28;20045;-78
2022/09/07 04:13:43;;;;;;;4.65;3.15;;;21.90;76.80;;;;;;5019636;28;20025;-76
2022/09/07 04:16:20;;;;;;;4.30;2.67;;;21.90;76.80;;;;;;5013406;28;20167;-77
2022/09/07 04:18:48;;;;;;;4.32;2.92;;;21.90;76.80;;;;;;5016846;28;20087;-76
2022/09/07 04:21:13;;;;;;;5.25;2.80;;;21.90;76.80;;;;;;5022206;28;20040;-77
2022/09/07 04:23:41;;;;;;;4.18;2.65;;;21.90;76.80;;;;;;5032451;28;20029;-77
2022/09/07 04:26:12;;;;;;;3.88;2.58;;;21.90;76.90;;;;;;5031506;28;20033;-75
2022/09/07 04:28:38;;;;;;;3.35;2.47;;;21.90;76.90;;;;;;5027211;28;20497;-74
2022/09/07 04:31:04;;;;;;;5.47;2.90;;;21.90;76.80;;;;;;5017812;28;20068;-77
2022/09/07 04:33:33;;;;;;;5.05;2.83;;;21.90;76.70;;;;;;5022133;28;20407;-75
2022/09/07 04:36:00;;;;;;;4.65;2.80;;;21.90;76.60;;;;;;5045934;28;20753;-81
2022/09/07 04:38:26;;;;;;;4.43;2.90;;;21.90;76.60;;;;;;5021077;28;20849;-77
2022/09/07 04:41:07;;;;;;;4.22;2.70;;;21.90;76.60;;;;;;5026022;28;20037;-76
2022/09/07 04:43:33;;;;;;;4.18;2.72;;;21.80;76.50;;;;;;5000150;28;20035;-77
2022/09/07 04:46:02;;;;;;;4.20;2.83;;;21.90;76.70;;;;;;5018503;28;20033;-77
2022/09/07 04:48:28;;;;;;;4.47;2.83;;;22.00;76.70;;;;;;5026601;28;20091;-76
2022/09/07 04:50:53;;;;;;;5.22;2.88;;;21.90;76.70;;;;;;5034064;28;20049;-77
2022/09/07 04:53:19;;;;;;;4.25;2.78;;;21.80;76.70;;;;;;5008959;28;20025;-76
2022/09/07 04:55:44;;;;;;;4.35;2.88;;;21.90;76.90;;;;;;5028702;28;20021;-76
2022/09/07 04:58:10;;;;;;;5.13;2.92;;;21.90;76.90;;;;;;5034018;28;20124;-75
2022/09/07 05:00:38;;;;;;;3.97;2.70;;;21.90;76.80;;;;;;5017751;28;20033;-77
2022/09/07 05:03:04;;;;;;;4.50;2.90;;;21.80;76.80;;;;;;5038146;28;20496;-76
2022/09/07 05:05:29;;;;;;;4.03;2.75;;;21.80;76.90;;;;;;5008021;28;20048;-76
2022/09/07 05:07:55;;;;;;;3.67;2.50;;;21.80;76.90;;;;;;5030742;28;20025;-75
2022/09/07 05:10:20;;;;;;;3.83;2.50;;;21.80;76.90;;;;;;5025588;28;20805;-75
2022/09/07 05:12:46;;;;;;;4.30;2.58;;;21.80;76.90;;;;;;5025389;28;20033;-76
2022/09/07 05:15:11;;;;;;;4.03;2.55;;;21.80;76.90;;;;;;5030982;28;20033;-76
2022/09/07 05:17:37;;;;;;;4.50;2.50;;;21.90;76.90;;;;;;5029018;28;20492;-76
2022/09/07 05:20:03;;;;;;;4.93;2.75;;;21.90;76.80;;;;;;5009971;28;20403;-75
2022/09/07 05:22:29;;;;;;;3.78;2.70;;;21.90;76.80;;;;;;5014425;28;20039;-76
2022/09/07 05:24:54;;;;;;;5.30;3.00;;;21.90;76.70;;;;;;5024544;28;20041;-77
2022/09/07 05:27:20;;;;;;;4.15;2.67;;;21.90;76.80;;;;;;5026079;28;20439;-76
2022/09/07 05:29:46;;;;;;;4.97;2.60;;;21.90;76.80;;;;;;5007372;28;20459;-77
2022/09/07 05:32:11;;;;;;;4.80;2.83;;;21.90;76.80;;;;;;5028771;28;20100;-77
2022/09/07 05:34:37;;;;;;;4.95;2.83;;;21.90;76.90;;;;;;5034378;28;20038;-76
2022/09/07 05:37:02;;;;;;;6.07;3.00;;;21.90;76.90;;;;;;5026464;28;20021;-77
2022/09/07 05:39:28;;;;;;;4.78;3.00;;;21.90;76.90;;;;;;5010056;28;20025;-77
2022/09/07 05:41:54;;;;;;;4.75;2.95;;;21.90;76.90;;;;;;5026430;28;20037;-77
2022/09/07 05:44:19;;;;;;;3.85;2.63;;;21.90;77.00;;;;;;5007669;28;20470;-76
2022/09/07 05:46:45;;;;;;;4.45;2.70;;;21.90;77.00;;;;;;5024594;28;20056;-77
2022/09/07 05:49:11;;;;;;;4.85;2.63;;;21.90;77.00;;;;;;5007205;28;20116;-75
2022/09/07 05:51:36;;;;;;;5.55;2.67;;;21.90;77.00;;;;;;5025025;28;20065;-77
2022/09/07 05:54:03;;;;;;;4.40;2.63;;;21.90;77.00;;;;;;5025046;28;20025;-76
2022/09/07 05:56:28;;;;;;;4.93;2.90;;;21.90;77.00;;;;;;5025504;28;20515;-77
2022/09/07 05:58:54;;;;;;;5.20;2.90;;;21.90;77.00;;;;;;5007612;28;20033;-77
2022/09/07 06:01:19;;;;;;;4.25;2.50;;;21.90;76.90;;;;;;5026369;28;20443;-78
2022/09/07 06:03:45;;;;;;;4.03;2.65;;;21.90;76.90;;;;;;5026131;28;20488;-77
2022/09/07 06:06:16;;;;;;;3.70;2.50;;;21.90;76.80;;;;;;5025597;28;20037;-76
2022/09/07 06:08:47;;;;;;;4.30;2.85;;;21.90;76.70;;;;;;5026009;28;20112;-77
2022/09/07 06:11:17;;;;;;;5.45;2.97;;;22.00;76.70;;;;;;5008021;28;20516;-78
2022/09/07 06:13:43;;;;;;;4.47;2.70;;;21.90;76.60;;;;;;5026058;28;20033;-77
2022/09/07 06:16:10;;;;;;;4.97;2.67;;;22.00;76.60;;;;;;5026419;28;20068;-78
2022/09/07 06:18:38;;;;;;;3.65;2.70;;;22.00;76.60;;;;;;5008112;28;20022;-76
2022/09/07 06:21:05;;;;;;;5.15;3.00;;;21.90;76.60;;;;;;5025630;28;20036;-75
2022/09/07 06:23:32;;;;;;;4.65;2.60;;;22.00;76.60;;;;;;5025916;28;20037;-77
2022/09/07 06:25:57;;;;;;;4.25;2.60;;;22.00;76.60;;;;;;5025555;28;20026;-75
2022/09/07 06:28:52;;;;;;;3.97;2.72;;;22.00;76.70;;;;;;5025595;28;20037;-77
2022/09/07 06:31:20;;;;;;;4.35;2.83;;;22.00;76.70;;;;;;5012039;28;20371;-75
2022/09/07 06:33:46;;;;;;;4.20;2.75;;;22.00;76.70;;;;;;5025692;28;20033;-77
2022/09/07 06:36:14;;;;;;;4.05;2.42;;;22.00;76.70;;;;;;5025894;28;20033;-77
2022/09/07 06:38:40;;;;;;;3.63;2.42;;;22.00;76.60;;;;;;5025278;28;20026;-76
2022/09/07 06:41:23;;;;;;;4.43;2.53;;;22.00;76.60;;;;;;5025714;28;20029;-77
2022/09/07 06:43:49;;;;;;;5.00;2.50;;;22.00;76.60;;;;;;5025759;28;20111;-76
2022/09/07 06:46:16;;;;;;;4.57;2.80;;;22.00;76.50;;;;;;5025717;28;20033;-78
2022/09/07 06:48:42;;;;;;;4.50;2.78;;;22.00;76.40;;;;;;5025555;28;20488;-75
2022/09/07 06:51:19;;;;;;;4.20;2.60;;;22.00;76.30;;;;;;5025373;28;20028;-77
2022/09/07 06:53:46;;;;;;;3.83;2.50;;;22.10;76.20;;;;;;5025469;28;20392;-74
2022/09/07 06:56:16;;;;;;;4.28;2.75;;;22.10;76.00;;;;;;5025563;28;20029;-77
2022/09/07 06:58:42;;;;;;;3.55;2.60;;;22.20;76.00;;;;;;5027838;28;20049;-78
2022/09/07 07:01:11;;;;;;;3.92;2.33;;;22.20;75.90;;;;;;5010922;28;20122;-76
2022/09/07 07:03:37;;;;;;;3.90;2.60;;;22.20;75.90;;;;;;5011225;28;20240;-76
2022/09/07 07:06:04;;;;;;;5.05;2.60;;;22.20;75.90;;;;;;5029087;28;20049;-78
2022/09/07 07:08:30;;;;;;;4.70;2.60;;;22.10;75.90;;;;;;5029045;28;20029;-77
2022/09/07 07:10:59;;;;;;;4.38;2.58;;;22.20;75.80;;;;;;5011134;28;20654;-77
2022/09/07 07:13:25;;;;;;;3.88;2.30;;;22.20;75.80;;;;;;5029492;28;20032;-77
2022/09/07 07:15:52;;;;;;;4.28;2.40;;;22.20;75.80;;;;;;5028935;28;20037;-76
2022/09/07 07:18:18;;;;;;;3.60;2.40;;;22.20;75.70;;;;;;5029259;28;20017;-78
2022/09/07 07:20:43;;;;;;;5.00;2.40;;;22.20;75.70;;;;;;5028500;28;20108;-78
2022/09/07 07:23:10;;;;;;;4.03;2.60;;;22.30;75.70;;;;;;5028758;28;20116;-77
2022/09/07 07:25:36;;;;;;;3.50;2.45;;;22.30;75.60;;;;;;5011014;28;20025;-75
2022/09/07 07:28:03;;;;;;;4.13;2.50;;;22.30;75.70;;;;;;5028946;28;20037;-77
2022/09/07 07:30:29;;;;;;;4.55;2.47;;;22.40;75.50;;;;;;5028265;28;20548;-77
2022/09/07 07:32:54;;;;;;;3.75;2.47;;;22.40;75.20;;;;;;5010858;28;20021;-77
2022/09/07 07:35:21;;;;;;;4.97;2.90;;;22.40;75.10;;;;;;5028434;28;20593;-77
2022/09/07 07:37:47;;;;;;;4.35;2.63;;;22.50;74.90;;;;;;5010938;28;20029;-77
2022/09/07 07:40:14;;;;;;;4.07;2.50;;;22.50;74.80;;;;;;5010587;28;20087;-75
2022/09/07 07:42:40;;;;;;;4.53;2.50;;;22.60;74.70;;;;;;5010750;28;20602;-76
2022/09/07 07:45:07;;;;;;;3.60;2.50;;;22.50;74.70;;;;;;5010768;28;20038;-76
2022/09/07 07:47:34;;;;;;;4.55;2.42;;;22.50;74.70;;;;;;5010919;28;20076;-77
2022/09/07 07:50:00;;;;;;;4.40;2.50;;;22.50;74.80;;;;;;5010661;28;20021;-78
2022/09/07 07:52:31;;;;;;;8.10;3.22;;;22.50;75.00;;;;;;5010714;28;20024;-77
2022/09/07 07:54:57;;;;;;;3.85;2.60;;;22.50;74.90;;;;;;5028209;28;20025;-76
2022/09/07 07:57:22;;;;;;;4.43;2.50;;;22.50;74.80;;;;;;5028000;28;20025;-77
2022/09/07 07:59:48;;;;;;;3.95;2.25;;;22.50;74.80;;;;;;5028040;28;20086;-77
2022/09/07 08:02:15;;;;;;;3.90;2.70;;;22.50;74.90;;;;;;5010060;28;20021;-77
2022/09/07 08:04:41;;;;;;;4.30;2.58;;;22.50;75.00;;;;;;5028068;28;20073;-77
2022/09/07 08:07:10;;;;;;;4.70;2.70;;;22.50;75.10;;;;;;5010255;28;20040;-77
2022/09/07 08:09:41;;;;;;;4.25;2.63;;;22.50;75.10;;;;;;5009174;28;20516;-77
2022/09/07 08:12:07;;;;;;;3.85;2.60;;;22.50;75.10;;;;;;5009896;28;20034;-76
2022/09/07 08:14:35;;;;;;;4.82;2.60;;;22.50;75.20;;;;;;5010042;28;20029;-77
2022/09/07 08:17:01;;;;;;;3.53;2.22;;;22.50;75.10;;;;;;5028815;28;20022;-77
2022/09/07 08:19:26;;;;;;;4.43;2.63;;;22.50;75.10;;;;;;5010553;28;20033;-77
2022/09/07 08:21:52;;;;;;;3.72;2.53;;;22.50;75.00;;;;;;5027546;28;20400;-77
2022/09/07 08:24:18;;;;;;;3.85;2.40;;;22.60;75.00;;;;;;5027651;28;20037;-77
2022/09/07 08:26:43;;;;;;;4.03;2.40;;;22.60;74.60;;;;;;5009662;28;20068;-76
2022/09/07 08:29:09;;;;;;;4.13;2.38;;;22.70;74.40;;;;;;5009859;28;20029;-77
2022/09/07 08:31:34;;;;;;;3.42;2.33;;;22.70;74.40;;;;;;5027051;28;20036;-75
2022/09/07 08:34:00;;;;;;;3.83;2.65;;;22.80;74.30;;;;;;5027661;28;20039;-77
2022/09/07 08:36:26;;;;;;;3.25;2.10;;;22.80;74.00;;;;;;5027248;28;20025;-75
2022/09/07 08:38:52;;;;;;;4.22;2.47;;;22.80;73.90;;;;;;5027482;28;20500;-77
2022/09/07 08:41:27;;;;;;;3.60;2.40;;;22.90;73.80;;;;;;5026554;28;20108;-74
2022/09/07 08:43:58;;;;;;;3.80;2.45;;;22.90;73.60;;;;;;5027367;28;20036;-77
2022/09/07 08:46:32;;;;;;;4.60;2.20;;;23.00;73.50;;;;;;5009657;28;20313;-77
2022/09/07 08:48:59;;;;;;;4.80;2.72;;;23.10;73.40;;;;;;5009415;28;20120;-77
2022/09/07 08:51:35;;;;;;;3.97;2.53;;;23.10;73.40;;;;;;5026647;28;20022;-76
2022/09/07 08:54:01;;;;;;;3.72;2.40;;;23.10;73.40;;;;;;5026910;28;20017;-75
2022/09/07 08:56:32;;;;;;;4.22;2.55;;;23.10;74.00;;;;;;5009111;28;20405;-76
2022/09/07 08:59:05;;;;;;;3.30;2.33;;;23.00;73.60;;;;;;5009456;28;20021;-77
2022/09/07 09:01:35;;;;;;;3.50;2.40;;;23.00;73.80;;;;;;5026522;28;20040;-77
2022/09/07 09:04:01;;;;;;;4.00;2.53;;;22.90;73.80;;;;;;5026865;28;20033;-77
2022/09/07 09:07:00;;;;;;;4.15;2.40;;;22.90;73.90;;;;;;5026572;28;20037;-76
2022/09/07 09:09:45;;;;;;;4.05;2.40;;;22.90;74.00;;;;;;5026189;28;20456;-76
2022/09/07 09:12:23;;;;;;;3.67;2.42;;;22.90;74.00;;;;;;5010274;28;20563;-79
2022/09/07 09:15:06;;;;;;;3.90;2.58;;;22.90;74.60;;;;;;5003555;28;20068;-78
2022/09/07 09:18:01;;;;;;;3.63;2.42;;;22.80;74.10;;;;;;5025529;28;20021;-76
2022/09/07 09:20:39;;;;;;;3.30;2.30;;;22.80;74.20;;;;;;4969863;28;20030;-76
2022/09/07 09:23:14;;;;;;;3.90;2.42;;;22.80;74.30;;;;;;5008163;28;20028;-77
2022/09/07 09:26:08;;;;;;;3.88;2.10;;;22.80;74.50;;;;;;5008058;28;20508;-76
2022/09/07 09:28:34;;;;;;;3.35;2.30;;;22.70;74.60;;;;;;5007857;28;20033;-76
2022/09/07 09:31:00;;;;;;;3.50;2.20;;;22.70;74.70;;;;;;5007943;28;20103;-77
2022/09/07 09:33:27;;;;;;;3.97;2.40;;;22.70;74.80;;;;;;5007260;28;20284;-77
2022/09/07 09:35:59;;;;;;;3.25;2.13;;;22.70;74.80;;;;;;5007856;28;20486;-77
2022/09/07 09:38:38;;;;;;;3.25;2.10;;;22.70;74.80;;;;;;5025566;28;20021;-77
2022/09/07 09:41:14;;;;;;;3.67;2.40;;;22.70;74.80;;;;;;5007990;28;20022;-77
2022/09/07 09:43:40;;;;;;;4.22;2.42;;;22.80;74.70;;;;;;5007597;28;20056;-76
2022/09/07 09:46:26;;;;;;;3.35;2.28;;;22.80;74.60;;;;;;5007866;28;20029;-77
2022/09/07 09:49:14;;;;;;;3.63;2.20;;;22.80;74.50;;;;;;5007387;28;20060;-76
2022/09/07 09:51:55;;;;;;;2.65;2.03;;;22.90;74.20;;;;;;5007453;28;20056;-76
2022/09/07 09:54:27;;;;;;;3.55;2.40;;;22.90;74.00;;;;;;5007378;28;20488;-77
2022/09/07 09:56:53;;;;;;;3.17;2.20;;;23.00;73.90;;;;;;5007762;28;20622;-76
2022/09/07 09:59:26;;;;;;;3.28;2.10;;;23.10;73.80;;;;;;5007575;28;20033;-76
2022/09/07 10:01:52;;;;;;;3.42;2.20;;;23.10;73.70;;;;;;5007434;28;20033;-76
2022/09/07 10:04:29;;;;;;;3.47;2.35;;;23.00;73.80;;;;;;5025296;28;20132;-77
2022/09/07 10:07:21;;;;;;;4.35;2.25;;;23.00;73.80;;;;;;5007507;28;20072;-77
2022/09/07 10:09:54;;;;;;;2.60;1.90;;;23.00;73.90;;;;;;5025013;28;20112;-76
2022/09/07 10:12:28;;;;;;;4.05;2.40;;;23.00;74.00;;;;;;5007470;28;20090;-78
2022/09/07 10:14:57;;;;;;;3.03;2.00;;;23.00;74.10;;;;;;5006942;28;20037;-75
2022/09/07 10:17:28;;;;;;;3.03;1.88;;;22.90;74.10;;;;;;5002268;28;20029;-76
2022/09/07 10:20:19;;;;;;;4.03;2.22;;;22.90;74.10;;;;;;5025030;28;20117;-75
2022/09/07 10:22:51;;;;;;;3.28;2.08;;;22.90;74.30;;;;;;5024943;28;20045;-76
2022/09/07 10:25:38;;;;;;;2.70;1.92;;;22.90;74.30;;;;;;5026147;28;20175;-77
2022/09/07 10:28:12;;;;;;;2.85;1.95;;;22.90;74.30;;;;;;5007600;28;20083;-76
2022/09/07 10:31:05;;;;;;;2.80;2.00;;;22.90;74.30;;;;;;5025960;28;20086;-78
2022/09/07 10:33:59;;;;;;;3.00;2.10;;;22.90;74.30;;;;;;5012120;28;20121;-78
2022/09/07 10:36:30;;;;;;;3.03;2.08;;;22.90;74.40;;;;;;5030498;28;20044;-76
2022/09/07 10:38:59;;;;;;;;;;;22.90;74.50;;;;;;5030497;28;20021;-76
2022/09/07 10:41:53;;;;;;;2.78;1.80;;;22.90;74.40;;;;;;5011787;28;20372;-75
2022/09/07 10:44:53;;;;;;;2.97;1.90;;;22.90;74.30;;;;;;5012025;28;20124;-76
2022/09/07 10:47:30;;;;;;;2.75;1.90;;;23.10;74.20;;;;;;5029854;28;20037;-77
2022/09/07 10:50:27;;;;;;;3.40;1.90;;;23.10;74.00;;;;;;5030018;28;20029;-76
2022/09/07 10:53:17;;;;;;;3.58;2.03;;;23.10;73.90;;;;;;5010289;28;20057;-74
2022/09/07 10:55:49;;;;;;;;;;;23.00;73.90;;;;;;5012954;28;20076;-76
2022/09/07 10:58:56;;;;;;;3.80;2.05;;;23.10;74.10;;;;;;5029097;28;20296;-75
2022/09/07 11:01:39;;;;;;;3.53;2.10;;;23.00;74.40;;;;;;5029259;28;20029;-76
2022/09/07 11:04:20;;;;;;;4.13;2.40;;;23.10;74.30;;;;;;5011266;28;20029;-77
2022/09/07 11:06:50;;;;;;;;;;;23.00;74.20;;;;;;5011905;28;20022;-76
2022/09/07 11:09:34;;;;;;;3.97;2.28;;;23.00;74.30;;;;;;5010654;28;19909;-76
2022/09/07 11:12:05;;;;;;;4.65;2.25;;;23.00;74.30;;;;;;5011267;28;20503;-77
2022/09/07 11:14:41;;;;;;;3.78;2.30;;;23.00;74.30;;;;;;5028931;28;20068;-76
2022/09/07 11:17:14;;;;;;;3.70;2.30;;;23.10;74.30;;;;;;5011289;28;20025;-76
2022/09/07 11:19:52;;;;;;;3.38;2.10;;;23.10;74.20;;;;;;5028970;28;20057;-77
2022/09/07 11:22:26;;;;;;;4.45;2.45;;;23.10;74.20;;;;;;5011215;28;20029;-75
2022/09/07 11:24:58;;;;;;;4.07;2.40;;;23.10;74.00;;;;;;5011218;28;20047;-77
2022/09/07 11:27:32;;;;;;;3.75;2.13;;;23.20;73.90;;;;;;5029081;28;20029;-77
2022/09/07 11:30:21;;;;;;;3.38;2.10;;;23.20;73.90;;;;;;5029392;28;20987;-76
2022/09/07 11:33:20;;;;;;;4.18;2.35;;;23.20;73.70;;;;;;5011188;28;20024;-74
2022/09/07 11:36:22;;;;;;;3.72;2.33;;;23.20;73.60;;;;;;5028654;28;20029;-75
2022/09/07 11:38:56;;;;;;;3.92;2.40;;;23.20;73.60;;;;;;4913342;29;20032;-76
2022/09/07 11:41:31;;;;;;;4.15;2.53;;;23.20;73.60;;;;;;4996788;28;20128;-77
2022/09/07 11:44:10;;;;;;;3.60;2.55;;;23.20;73.70;;;;;;5010373;28;20454;-74
2022/09/07 11:46:42;;;;;;;4.77;2.67;;;23.20;73.80;;;;;;5011143;28;20125;-75
2022/09/07 11:49:24;;;;;;;3.47;2.40;;;23.20;73.90;;;;;;5010915;28;20021;-74
2022/09/07 11:51:59;;;;;;;4.25;2.45;;;23.20;74.00;;;;;;5028337;28;20060;-75
2022/09/07 11:54:44;;;;;;;4.38;2.75;;;23.20;74.00;;;;;;5024426;28;20028;-76
2022/09/07 11:57:44;;;;;;;4.22;2.65;;;23.20;74.00;;;;;;5009360;28;20026;-76
2022/09/07 12:00:22;;;;;;;3.58;2.70;;;23.20;74.00;;;;;;5021525;28;20087;-76
2022/09/07 12:03:05;;;;;;;3.95;2.60;;;23.20;74.00;;;;;;5014166;28;20063;-76
2022/09/07 12:05:52;;;;;;;5.75;3.13;;;23.20;74.00;;;;;;5018013;28;20029;-77
2022/09/07 12:08:36;;;;;;;3.83;2.72;;;23.20;74.00;;;;;;5038564;28;20029;-75
2022/09/07 12:11:10;;;;;;;4.82;3.05;;;23.20;74.00;;;;;;5021492;28;20039;-76
2022/09/07 12:13:59;;;;;;;4.05;3.03;;;23.20;73.90;;;;;;5040174;28;20065;-77
2022/09/07 12:16:28;;;;;;;4.15;2.97;;;23.20;73.70;;;;;;5009727;28;20044;-77
2022/09/07 12:19:11;;;;;;;4.57;3.05;;;23.30;73.70;;;;;;5043938;28;20029;-77
2022/09/07 12:21:43;;;;;;;4.05;3.03;;;23.30;73.70;;;;;;5030674;28;20025;-77
2022/09/07 12:24:40;;;;;;;4.28;3.00;;;23.30;73.60;;;;;;5045782;28;20086;-76
2022/09/07 12:27:29;;;;;;;4.00;3.08;;;23.30;73.70;;;;;;5015621;28;20025;-76
2022/09/07 12:30:00;;;;;;;4.55;3.10;;;23.20;73.80;;;;;;5043370;28;20036;-77
2022/09/07 12:32:47;;;;;;;4.65;3.20;;;23.20;73.90;;;;;;5021685;28;20037;-77
2022/09/07 12:35:39;;;;;;;3.72;2.92;;;23.20;74.10;;;;;;5021388;28;20028;-76
2022/09/07 12:38:16;;;;;;;5.22;3.35;;;23.10;74.10;;;;;;5039537;28;20043;-79
2022/09/07 12:40:59;;;;;;;4.07;3.20;;;23.10;74.20;;;;;;5041641;28;20063;-77
2022/09/07 12:43:30;;;;;;;4.80;3.45;;;23.10;74.20;;;;;;5031040;28;20195;-78
2022/09/07 12:45:56;;;;;;;;;;;23.10;74.30;;;;;;5014226;28;20029;-77
2022/09/07 12:48:25;;;;;;;4.80;3.58;;;23.10;74.30;;;;;;5021152;28;20303;-75
2022/09/07 12:51:02;;;;;;;4.75;3.40;;;23.10;74.40;;;;;;5047017;28;20033;-77
2022/09/07 12:53:33;;;;;;;4.68;3.58;;;23.10;74.50;;;;;;5029252;28;20033;-78
2022/09/07 12:56:08;;;;;;;4.70;3.50;;;23.10;74.50;;;;;;5008335;28;20140;-78
2022/09/07 12:58:58;;;;;;;4.40;3.40;;;23.10;74.50;;;;;;5036332;28;20162;-75
2022/09/07 13:01:54;;;;;;;4.32;3.20;;;23.10;74.40;;;;;;5007915;28;20330;-76
2022/09/07 13:04:31;;;;;;;5.30;3.80;;;23.10;74.30;;;;;;5020021;28;20108;-77
2022/09/07 13:07:24;;;;;;;5.05;3.60;;;23.20;74.30;;;;;;5028664;28;20021;-77
2022/09/07 13:10:02;;;;;;;5.47;4.07;;;23.10;74.20;;;;;;5042963;28;20068;-76
2022/09/07 13:12:37;;;;;;;5.07;3.78;;;23.10;74.20;;;;;;5012955;28;20033;-77
2022/09/07 13:15:04;;;;;;;4.93;3.45;;;23.10;74.30;;;;;;5044285;28;20128;-74